createdAt,value
2019-04-21T00:00:15.097Z,0.00
2019-04-21T00:01:12.571Z,0.00
2019-04-21T00:02:14.803Z,0.00
2019-04-21T00:03:19.304Z,0.00
2019-04-21T00:04:24.745Z,0.00
2019-04-21T00:05:37.336Z,0.00
2019-04-21T00:06:32.198Z,0.00
2019-04-21T00:07:31.562Z,0.00
2019-04-21T00:08:39.523Z,0.00
2019-04-21T00:09:34.356Z,0.00
2019-04-21T00:10:33.531Z,0.00
2019-04-21T00:11:29.803Z,0.00
2019-04-21T00:12:28.465Z,0.00
2019-04-21T00:13:31.296Z,0.00
2019-04-21T00:14:22.084Z,0.00
2019-04-21T00:15:20.208Z,0.00
2019-04-21T00:16:14.142Z,0.00
2019-04-21T00:17:15.638Z,0.00
2019-04-21T00:18:12.275Z,0.00
2019-04-21T00:19:18.162Z,0.00
2019-04-21T00:20:22.708Z,0.00
2019-04-21T00:21:22.539Z,0.00
2019-04-21T00:22:23.286Z,0.00
2019-04-21T00:23:31.489Z,0.00
2019-04-21T00:24:28.952Z,0.00
2019-04-21T00:25:24.885Z,0.00
2019-04-21T00:26:31.807Z,0.00
2019-04-21T00:27:28.079Z,0.00
2019-04-21T00:28:36.268Z,0.00
2019-04-21T00:29:33.887Z,0.00
2019-04-21T00:30:36.726Z,0.00
2019-04-21T00:31:32.366Z,0.00
2019-04-21T00:32:25.684Z,0.00
2019-04-21T00:33:18.864Z,0.00
2019-04-21T00:34:11.397Z,0.00
2019-04-21T00:35:15.886Z,0.00
2019-04-21T00:36:18.578Z,0.00
2019-04-21T00:37:21.642Z,0.00
2019-04-21T00:38:32.381Z,0.00
2019-04-21T00:40:37.736Z,0.00
2019-04-21T00:41:34.004Z,0.00
2019-04-21T00:42:29.082Z,0.00
2019-04-21T00:43:30.674Z,0.00
2019-04-21T00:44:21.498Z,0.00
2019-04-21T00:45:23.598Z,0.00
2019-04-21T00:46:28.747Z,0.00
2019-04-21T00:47:34.067Z,0.00
2019-04-21T00:48:36.430Z,0.00
2019-04-21T00:49:27.128Z,0.00
2019-04-21T00:50:40.788Z,0.00
2019-04-21T00:51:40.913Z,0.00
2019-04-21T00:52:47.531Z,0.00
2019-04-21T00:53:48.419Z,0.00
2019-04-21T00:54:42.344Z,0.00
2019-04-21T00:55:38.495Z,0.00
2019-04-21T00:56:34.163Z,0.00
2019-04-21T00:57:41.331Z,0.00
2019-04-21T00:58:33.109Z,0.00
2019-04-21T00:59:33.518Z,0.00
2019-04-21T01:00:32.588Z,0.00
2019-04-21T01:01:31.211Z,0.00
2019-04-21T01:02:41.343Z,0.00
2019-04-21T01:03:43.513Z,0.00
2019-04-21T01:04:36.866Z,0.00
2019-04-21T01:05:39.844Z,0.00
2019-04-21T01:06:36.900Z,0.00
2019-04-21T01:07:31.984Z,0.00
2019-04-21T01:08:31.088Z,0.00
2019-04-21T01:09:30.145Z,0.00
2019-04-21T01:10:24.178Z,0.00
2019-04-21T01:11:35.102Z,0.00
2019-04-21T01:12:37.681Z,0.00
2019-04-21T01:13:45.395Z,0.00
2019-04-21T01:14:46.888Z,0.00
2019-04-21T01:15:37.541Z,0.00
2019-04-21T01:16:39.327Z,0.00
2019-04-21T01:17:35.599Z,0.00
2019-04-21T01:18:32.629Z,0.00
2019-04-21T01:19:33.205Z,0.00
2019-04-21T01:20:17.174Z,0.00
2019-04-21T01:21:14.225Z,0.00
2019-04-21T01:22:12.922Z,0.00
2019-04-21T01:23:12.956Z,0.00
2019-04-21T01:24:19.694Z,0.00
2019-04-21T01:25:22.887Z,0.00
2019-04-21T01:26:22.622Z,0.00
2019-04-21T01:27:26.297Z,0.00
2019-04-21T01:28:28.995Z,0.00
2019-04-21T01:29:36.901Z,0.00
2019-04-21T01:30:35.370Z,0.00
2019-04-21T01:31:30.003Z,0.00
2019-04-21T01:32:34.396Z,0.00
2019-04-21T01:33:38.198Z,0.00
2019-04-21T01:34:37.220Z,0.00
2019-04-21T01:35:35.437Z,0.00
2019-04-21T01:36:33.329Z,0.00
2019-04-21T01:37:42.194Z,0.00
2019-04-21T01:38:53.765Z,0.00
2019-04-21T01:39:35.033Z,0.00
2019-04-21T01:40:34.788Z,0.00
2019-04-21T01:41:41.342Z,0.00
2019-04-21T01:42:33.395Z,0.00
2019-04-21T01:43:27.781Z,0.00
2019-04-21T01:44:36.215Z,0.00
2019-04-21T01:45:35.569Z,0.00
2019-04-21T01:46:29.659Z,0.00
2019-04-21T01:47:32.282Z,0.00
2019-04-21T01:48:33.332Z,0.00
2019-04-21T01:49:28.613Z,0.00
2019-04-21T01:50:29.554Z,0.00
2019-04-21T01:51:28.146Z,0.00
2019-04-21T01:52:43.874Z,0.00
2019-04-21T01:53:38.212Z,0.00
2019-04-21T01:54:35.338Z,0.00
2019-04-21T01:55:36.679Z,0.00
2019-04-21T01:56:37.061Z,0.00
2019-04-21T01:57:29.420Z,0.00
2019-04-21T01:58:27.060Z,0.00
2019-04-21T01:59:27.828Z,0.00
2019-04-21T02:00:35.064Z,0.00
2019-04-21T02:01:33.549Z,0.00
2019-04-21T02:02:36.621Z,0.00
2019-04-21T02:03:54.468Z,0.00
2019-04-21T02:04:41.794Z,0.00
2019-04-21T02:05:37.528Z,0.00
2019-04-21T02:06:37.789Z,0.00
2019-04-21T02:07:34.245Z,0.00
2019-04-21T02:08:34.039Z,0.00
2019-04-21T02:09:33.185Z,0.00
2019-04-21T02:10:41.480Z,0.00
2019-04-21T02:11:35.512Z,0.00
2019-04-21T02:12:40.560Z,0.00
2019-04-21T02:13:35.532Z,0.00
2019-04-21T02:14:40.908Z,0.00
2019-04-21T02:15:41.963Z,0.00
2019-04-21T02:16:34.622Z,0.00
2019-04-21T02:17:38.680Z,0.00
2019-04-21T02:18:33.475Z,0.00
2019-04-21T02:19:31.607Z,0.00
2019-04-21T02:20:26.953Z,0.00
2019-04-21T02:21:31.915Z,0.00
2019-04-21T02:22:46.453Z,0.00
2019-04-21T02:23:38.213Z,0.00
2019-04-21T02:24:45.149Z,0.00
2019-04-21T02:25:40.043Z,0.00
2019-04-21T02:26:47.172Z,0.00
2019-04-21T02:27:41.190Z,0.00
2019-04-21T02:28:42.715Z,0.00
2019-04-21T02:29:42.685Z,0.00
2019-04-21T02:30:55.167Z,0.00
2019-04-21T02:31:48.481Z,0.00
2019-04-21T02:32:48.348Z,0.00
2019-04-21T02:34:02.660Z,0.00
2019-04-21T02:34:52.872Z,0.00
2019-04-21T02:35:55.936Z,0.00
2019-04-21T02:36:52.925Z,0.00
2019-04-21T02:37:55.169Z,0.00
2019-04-21T02:39:00.291Z,0.00
2019-04-21T02:39:48.930Z,0.00
2019-04-21T02:40:46.518Z,0.00
2019-04-21T02:41:50.541Z,0.00
2019-04-21T02:45:03.907Z,0.00
2019-04-21T02:45:51.819Z,0.00
2019-04-21T02:48:59.805Z,0.00
2019-04-21T02:49:56.485Z,0.00
2019-04-21T02:50:47.594Z,0.00
2019-04-21T02:51:54.415Z,0.00
2019-04-21T02:54:24.999Z,0.00
2019-04-21T02:55:44.666Z,0.00
2019-04-21T02:57:51.893Z,0.00
2019-04-21T02:58:52.915Z,0.00
2019-04-21T03:00:42.787Z,0.00
2019-04-21T03:01:49.047Z,0.00
2019-04-21T03:03:41.777Z,0.00
2019-04-21T03:05:05.210Z,0.00
2019-04-21T03:06:59.404Z,0.00
2019-04-21T03:07:55.390Z,0.00
2019-04-21T03:08:50.386Z,0.00
2019-04-21T03:09:44.841Z,0.00
2019-04-21T03:11:52.884Z,0.00
2019-04-21T03:12:59.750Z,0.00
2019-04-21T03:13:50.650Z,0.00
2019-04-21T03:14:56.434Z,0.00
2019-04-21T03:15:55.603Z,0.00
2019-04-21T03:16:49.328Z,0.00
2019-04-21T03:17:54.984Z,0.00
2019-04-21T03:19:50.076Z,0.00
2019-04-21T03:20:53.309Z,0.00
2019-04-21T03:21:52.405Z,0.00
2019-04-21T03:25:52.101Z,0.00
2019-04-21T03:29:05.878Z,0.00
2019-04-21T03:36:19.020Z,0.00
2019-04-21T03:37:43.210Z,0.00
2019-04-21T03:38:41.037Z,0.00
2019-04-21T03:39:50.334Z,0.00
2019-04-21T03:40:54.971Z,0.00
2019-04-21T03:42:07.491Z,0.00
2019-04-21T03:42:54.984Z,0.00
2019-04-21T03:44:45.348Z,0.00
2019-04-21T03:45:46.563Z,0.00
2019-04-21T03:46:53.092Z,0.00
2019-04-21T03:47:49.176Z,0.00
2019-04-21T03:52:53.434Z,0.00
2019-04-21T03:53:46.461Z,0.00
2019-04-21T03:54:56.493Z,0.00
2019-04-21T03:58:55.903Z,0.00
2019-04-21T03:59:55.646Z,0.00
2019-04-21T04:00:59.499Z,0.00
2019-04-21T04:01:48.893Z,0.00
2019-04-21T04:02:55.139Z,0.00
2019-04-21T04:06:03.380Z,0.00
2019-04-21T04:06:55.608Z,0.00
2019-04-21T04:07:59.220Z,0.00
2019-04-21T04:09:09.229Z,0.00
2019-04-21T04:09:54.073Z,0.00
2019-04-21T04:10:51.941Z,0.00
2019-04-21T04:12:52.894Z,0.00
2019-04-21T04:13:55.605Z,0.00
2019-04-21T04:16:01.823Z,0.00
2019-04-21T04:17:49.914Z,0.00
2019-04-21T04:18:53.108Z,0.00
2019-04-21T04:19:48.549Z,0.00
2019-04-21T04:20:51.751Z,0.00
2019-04-21T04:23:55.453Z,0.00
2019-04-21T04:25:07.465Z,0.00
2019-04-21T04:25:53.612Z,0.00
2019-04-21T04:26:47.527Z,0.00
2019-04-21T04:27:59.948Z,5.63
2019-04-21T04:29:51.305Z,5.63
2019-04-21T04:30:53.799Z,5.63
2019-04-21T04:31:45.628Z,5.63
2019-04-21T04:33:08.053Z,5.63
2019-04-21T04:33:57.775Z,5.63
2019-04-21T04:38:03.367Z,5.63
2019-04-21T04:39:02.191Z,5.63
2019-04-21T04:39:57.063Z,5.63
2019-04-21T04:41:02.874Z,5.63
2019-04-21T04:41:55.044Z,5.63
2019-04-21T04:43:55.243Z,5.63
2019-04-21T04:47:51.299Z,5.63
2019-04-21T04:48:59.396Z,5.63
2019-04-21T04:52:09.632Z,5.63
2019-04-21T04:52:44.109Z,5.63
2019-04-21T04:53:48.787Z,5.63
2019-04-21T04:55:46.123Z,5.63
2019-04-21T04:56:56.343Z,5.63
2019-04-21T04:59:19.329Z,5.63
2019-04-21T04:59:50.214Z,5.63
2019-04-21T05:01:00.368Z,5.63
2019-04-21T05:02:52.304Z,5.63
2019-04-21T05:04:02.642Z,11.25
2019-04-21T05:04:55.184Z,11.25
2019-04-21T05:06:00.842Z,11.25
2019-04-21T05:08:08.323Z,11.25
2019-04-21T05:09:10.886Z,11.25
2019-04-21T05:10:59.063Z,11.25
2019-04-21T05:12:44.249Z,11.25
2019-04-21T05:13:55.043Z,11.25
2019-04-21T05:15:50.518Z,11.25
2019-04-21T05:16:54.883Z,11.25
2019-04-21T05:18:52.802Z,11.25
2019-04-21T05:20:05.461Z,11.25
2019-04-21T05:20:52.647Z,11.25
2019-04-21T05:22:05.510Z,11.25
2019-04-21T05:22:44.914Z,11.25
2019-04-21T05:23:45.659Z,11.25
2019-04-21T05:24:37.935Z,11.25
2019-04-21T05:25:38.830Z,11.25
2019-04-21T05:26:39.231Z,11.25
2019-04-21T05:27:33.563Z,11.25
2019-04-21T05:28:32.879Z,11.25
2019-04-21T05:29:49.549Z,11.25
2019-04-21T05:30:50.063Z,11.25
2019-04-21T05:31:44.593Z,11.25
2019-04-21T05:32:45.169Z,11.25
2019-04-21T05:33:49.556Z,11.25
2019-04-21T05:34:38.966Z,11.25
2019-04-21T05:35:43.826Z,11.25
2019-04-21T05:36:48.977Z,11.25
2019-04-21T05:37:43.437Z,11.25
2019-04-21T05:38:39.149Z,11.25
2019-04-21T05:39:37.774Z,11.25
2019-04-21T05:40:35.883Z,11.25
2019-04-21T05:41:31.282Z,11.25
2019-04-21T05:42:36.839Z,11.25
2019-04-21T05:43:39.834Z,11.25
2019-04-21T05:44:52.853Z,11.25
2019-04-21T05:45:46.025Z,11.25
2019-04-21T05:46:50.666Z,11.25
2019-04-21T05:47:50.113Z,11.25
2019-04-21T05:48:39.162Z,11.25
2019-04-21T05:49:38.696Z,11.25
2019-04-21T05:50:37.772Z,11.25
2019-04-21T05:51:41.152Z,11.25
2019-04-21T05:52:33.954Z,11.25
2019-04-21T05:53:40.477Z,11.25
2019-04-21T05:54:52.872Z,11.25
2019-04-21T05:56:08.565Z,11.25
2019-04-21T05:56:42.359Z,11.25
2019-04-21T05:57:38.423Z,11.25
2019-04-21T05:58:43.619Z,11.25
2019-04-21T05:59:43.748Z,11.25
2019-04-21T06:00:59.186Z,11.25
2019-04-21T06:01:48.587Z,11.25
2019-04-21T06:02:51.000Z,11.25
2019-04-21T06:05:53.352Z,16.88
2019-04-21T06:06:53.797Z,16.88
2019-04-21T06:07:41.521Z,16.88
2019-04-21T06:08:42.287Z,16.88
2019-04-21T06:09:52.558Z,16.88
2019-04-21T06:10:49.514Z,16.88
2019-04-21T06:11:47.533Z,16.88
2019-04-21T06:12:52.205Z,16.88
2019-04-21T06:13:51.622Z,16.88
2019-04-21T06:14:49.477Z,16.88
2019-04-21T06:15:50.297Z,16.88
2019-04-21T06:16:49.417Z,16.88
2019-04-21T06:17:49.543Z,16.88
2019-04-21T06:18:47.061Z,16.88
2019-04-21T06:19:52.788Z,16.88
2019-04-21T06:20:46.797Z,16.88
2019-04-21T06:21:47.851Z,16.88
2019-04-21T06:22:48.982Z,16.88
2019-04-21T06:23:41.980Z,16.88
2019-04-21T06:24:54.666Z,16.88
2019-04-21T06:25:54.539Z,16.88
2019-04-21T06:27:04.938Z,16.88
2019-04-21T06:27:49.476Z,16.88
2019-04-21T06:28:46.753Z,16.88
2019-04-21T06:29:43.898Z,16.88
2019-04-21T06:30:53.058Z,16.88
2019-04-21T06:33:52.009Z,16.88
2019-04-21T06:34:59.806Z,16.88
2019-04-21T06:36:08.992Z,16.88
2019-04-21T06:36:47.413Z,16.88
2019-04-21T06:38:58.224Z,16.88
2019-04-21T06:40:50.162Z,16.88
2019-04-21T06:41:37.947Z,16.88
2019-04-21T06:42:50.255Z,16.88
2019-04-21T06:44:01.418Z,16.88
2019-04-21T06:44:54.300Z,16.88
2019-04-21T06:45:50.719Z,16.88
2019-04-21T06:46:59.320Z,16.88
2019-04-21T06:48:06.292Z,16.88
2019-04-21T06:48:49.766Z,16.88
2019-04-21T06:49:46.786Z,16.88
2019-04-21T06:50:52.830Z,16.88
2019-04-21T06:51:45.530Z,16.88
2019-04-21T06:53:57.800Z,16.88
2019-04-21T06:54:49.525Z,16.88
2019-04-21T06:55:44.827Z,16.88
2019-04-21T06:56:45.055Z,16.88
2019-04-21T06:57:43.169Z,16.88
2019-04-21T06:58:45.031Z,16.88
2019-04-21T06:59:43.611Z,16.88
2019-04-21T07:00:42.435Z,16.88
2019-04-21T07:01:55.240Z,22.50
2019-04-21T07:02:54.931Z,22.50
2019-04-21T07:03:49.370Z,22.50
2019-04-21T07:04:50.438Z,22.50
2019-04-21T07:05:52.452Z,22.50
2019-04-21T07:06:50.154Z,22.50
2019-04-21T07:07:57.688Z,22.50
2019-04-21T07:08:55.120Z,22.50
2019-04-21T07:09:52.974Z,22.50
2019-04-21T07:10:48.781Z,22.50
2019-04-21T07:11:43.825Z,22.50
2019-04-21T07:12:46.518Z,22.50
2019-04-21T07:13:49.032Z,22.50
2019-04-21T07:14:43.894Z,22.50
2019-04-21T07:15:43.519Z,22.50
2019-04-21T07:16:51.463Z,22.50
2019-04-21T07:17:45.522Z,22.50
2019-04-21T07:18:56.599Z,22.50
2019-04-21T07:19:49.975Z,22.50
2019-04-21T07:20:49.153Z,22.50
2019-04-21T07:21:50.140Z,22.50
2019-04-21T07:22:47.872Z,22.50
2019-04-21T07:23:57.241Z,22.50
2019-04-21T07:24:45.829Z,22.50
2019-04-21T07:25:45.826Z,22.50
2019-04-21T07:26:51.253Z,22.50
2019-04-21T07:27:49.485Z,22.50
2019-04-21T07:28:49.915Z,22.50
2019-04-21T07:29:50.597Z,22.50
2019-04-21T07:30:57.564Z,22.50
2019-04-21T07:32:47.400Z,22.50
2019-04-21T07:34:14.029Z,22.50
2019-04-21T07:34:49.457Z,22.50
2019-04-21T07:35:43.240Z,22.50
2019-04-21T07:36:52.143Z,22.50
2019-04-21T07:37:49.276Z,22.50
2019-04-21T07:38:45.833Z,22.50
2019-04-21T07:39:45.062Z,22.50
2019-04-21T07:40:40.544Z,22.50
2019-04-21T07:41:42.448Z,22.50
2019-04-21T07:42:43.935Z,22.50
2019-04-21T07:43:38.013Z,22.50
2019-04-21T07:44:43.535Z,22.50
2019-04-21T07:45:43.192Z,22.50
2019-04-21T07:46:38.627Z,22.50
2019-04-21T07:47:46.011Z,22.50
2019-04-21T07:48:46.121Z,28.13
2019-04-21T07:49:46.625Z,28.13
2019-04-21T07:50:46.931Z,28.13
2019-04-21T07:51:52.104Z,28.13
2019-04-21T07:52:52.148Z,28.13
2019-04-21T07:53:52.580Z,28.13
2019-04-21T07:55:03.291Z,28.13
2019-04-21T07:56:33.919Z,28.13
2019-04-21T07:57:37.588Z,28.13
2019-04-21T07:58:53.581Z,28.13
2019-04-21T07:59:55.193Z,28.13
2019-04-21T08:01:45.358Z,28.13
2019-04-21T08:02:49.156Z,28.13
2019-04-21T08:03:45.389Z,28.13
2019-04-21T08:05:47.161Z,28.13
2019-04-21T08:06:47.749Z,28.13
2019-04-21T08:07:57.153Z,28.13
2019-04-21T08:08:48.955Z,28.13
2019-04-21T08:10:44.179Z,28.13
2019-04-21T08:11:44.279Z,28.13
2019-04-21T08:12:43.274Z,28.13
2019-04-21T08:13:55.108Z,28.13
2019-04-21T08:14:45.158Z,28.13
2019-04-21T08:15:49.420Z,28.13
2019-04-21T08:16:51.191Z,28.13
2019-04-21T08:17:47.175Z,28.13
2019-04-21T08:18:45.460Z,28.13
2019-04-21T08:19:43.357Z,28.13
2019-04-21T08:20:45.916Z,28.13
2019-04-21T08:21:54.625Z,28.13
2019-04-21T08:23:43.123Z,28.13
2019-04-21T08:24:50.819Z,28.13
2019-04-21T08:25:52.956Z,28.13
2019-04-21T08:26:53.178Z,28.13
2019-04-21T08:27:54.024Z,28.13
2019-04-21T08:28:49.493Z,28.13
2019-04-21T08:29:47.684Z,28.13
2019-04-21T08:30:42.496Z,28.13
2019-04-21T08:34:19.884Z,33.75
2019-04-21T08:34:55.950Z,33.75
2019-04-21T08:36:47.186Z,33.75
2019-04-21T08:37:43.271Z,33.75
2019-04-21T08:38:48.405Z,33.75
2019-04-21T08:39:58.078Z,33.75
2019-04-21T08:41:03.646Z,33.75
2019-04-21T08:41:45.270Z,33.75
2019-04-21T08:42:45.061Z,33.75
2019-04-21T08:43:44.603Z,33.75
2019-04-21T08:44:46.663Z,33.75
2019-04-21T08:45:48.199Z,33.75
2019-04-21T08:46:49.221Z,33.75
2019-04-21T08:47:45.863Z,33.75
2019-04-21T08:48:53.018Z,33.75
2019-04-21T08:49:52.469Z,33.75
2019-04-21T08:50:53.874Z,33.75
2019-04-21T08:51:51.984Z,33.75
2019-04-21T08:52:52.227Z,33.75
2019-04-21T08:54:51.542Z,33.75
2019-04-21T08:55:48.997Z,33.75
2019-04-21T08:56:49.559Z,33.75
2019-04-21T08:58:05.201Z,33.75
2019-04-21T08:58:54.676Z,39.38
2019-04-21T08:59:50.657Z,39.38
2019-04-21T09:00:48.913Z,39.38
2019-04-21T09:01:48.856Z,39.38
2019-04-21T09:02:47.381Z,39.38
2019-04-21T09:03:52.098Z,39.38
2019-04-21T09:04:45.844Z,39.38
2019-04-21T09:05:53.945Z,39.38
2019-04-21T09:06:58.684Z,39.38
2019-04-21T09:07:53.692Z,39.38
2019-04-21T09:08:46.277Z,39.38
2019-04-21T09:09:47.579Z,39.38
2019-04-21T09:10:47.319Z,39.38
2019-04-21T09:11:49.916Z,39.38
2019-04-21T09:12:46.607Z,39.38
2019-04-21T09:13:47.762Z,39.38
2019-04-21T09:14:48.811Z,39.38
2019-04-21T09:15:44.837Z,39.38
2019-04-21T09:16:42.628Z,39.38
2019-04-21T09:17:43.178Z,39.38
2019-04-21T09:18:41.543Z,39.38
2019-04-21T09:20:07.994Z,39.38
2019-04-21T09:20:52.582Z,39.38
2019-04-21T09:21:51.106Z,39.38
2019-04-21T09:22:50.639Z,39.38
2019-04-21T09:23:45.270Z,39.38
2019-04-21T09:24:46.831Z,39.38
2019-04-21T09:26:40.667Z,39.38
2019-04-21T09:27:47.108Z,39.38
2019-04-21T09:28:40.406Z,39.38
2019-04-21T09:29:36.749Z,39.38
2019-04-21T09:30:30.726Z,39.38
2019-04-21T09:31:33.869Z,39.38
2019-04-21T09:32:32.561Z,39.38
2019-04-21T09:33:35.680Z,39.38
2019-04-21T09:34:34.556Z,39.38
2019-04-21T09:35:29.149Z,39.38
2019-04-21T09:36:35.042Z,39.38
2019-04-21T09:37:40.834Z,39.38
2019-04-21T09:38:36.525Z,39.38
2019-04-21T09:39:31.449Z,39.38
2019-04-21T09:40:34.640Z,39.38
2019-04-21T09:41:30.060Z,39.38
2019-04-21T09:42:35.944Z,39.38
2019-04-21T09:43:37.724Z,45.00
2019-04-21T09:44:36.097Z,45.00
2019-04-21T09:45:30.640Z,45.00
2019-04-21T09:46:29.880Z,45.00
2019-04-21T09:47:37.998Z,45.00
2019-04-21T09:48:43.746Z,45.00
2019-04-21T09:49:31.666Z,45.00
2019-04-21T09:50:29.555Z,45.00
2019-04-21T09:51:30.465Z,45.00
2019-04-21T09:52:38.947Z,45.00
2019-04-21T09:53:34.474Z,45.00
2019-04-21T09:54:33.341Z,45.00
2019-04-21T09:55:39.574Z,45.00
2019-04-21T09:56:39.504Z,45.00
2019-04-21T09:57:40.438Z,45.00
2019-04-21T09:58:37.977Z,45.00
2019-04-21T09:59:35.575Z,45.00
2019-04-21T10:00:36.244Z,45.00
2019-04-21T10:01:47.811Z,45.00
2019-04-21T10:02:37.611Z,45.00
2019-04-21T10:03:37.133Z,45.00
2019-04-21T10:04:31.027Z,45.00
2019-04-21T10:05:29.852Z,45.00
2019-04-21T10:06:30.659Z,45.00
2019-04-21T10:07:35.602Z,45.00
2019-04-21T10:08:29.965Z,45.00
2019-04-21T10:09:31.051Z,45.00
2019-04-21T10:10:30.043Z,45.00
2019-04-21T10:11:31.121Z,45.00
2019-04-21T10:12:30.669Z,45.00
2019-04-21T10:13:30.155Z,45.00
2019-04-21T10:14:30.915Z,45.00
2019-04-21T10:15:30.231Z,45.00
2019-04-21T10:16:30.276Z,45.00
2019-04-21T10:17:30.308Z,45.00
2019-04-21T10:18:31.644Z,45.00
2019-04-21T10:19:31.593Z,45.00
2019-04-21T10:20:30.876Z,45.00
2019-04-21T10:21:31.601Z,45.00
2019-04-21T10:22:31.004Z,45.00
2019-04-21T10:23:31.610Z,45.00
2019-04-21T10:24:30.693Z,45.00
2019-04-21T10:25:30.740Z,45.00
2019-04-21T10:26:30.669Z,45.00
2019-04-21T10:27:31.517Z,45.00
2019-04-21T10:28:30.981Z,45.00
2019-04-21T10:29:32.991Z,45.00
2019-04-21T10:30:30.809Z,45.00
2019-04-21T10:31:30.846Z,45.00
2019-04-21T10:32:32.276Z,45.00
2019-04-21T10:33:30.924Z,45.00
2019-04-21T10:34:31.484Z,50.63
2019-04-21T10:35:31.214Z,50.63
2019-04-21T10:36:31.060Z,50.63
2019-04-21T10:37:42.818Z,45.00
2019-04-21T10:38:38.005Z,45.00
2019-04-21T10:39:31.606Z,45.00
2019-04-21T10:40:33.834Z,45.00
2019-04-21T10:41:31.235Z,45.00
2019-04-21T10:42:31.329Z,45.00
2019-04-21T10:43:31.328Z,45.00
2019-04-21T10:44:31.556Z,45.00
2019-04-21T10:45:32.697Z,45.00
2019-04-21T10:46:32.867Z,45.00
2019-04-21T10:47:31.469Z,45.00
2019-04-21T10:48:34.370Z,45.00
2019-04-21T10:49:32.663Z,45.00
2019-04-21T10:50:31.607Z,45.00
2019-04-21T10:51:32.806Z,45.00
2019-04-21T10:52:32.906Z,45.00
2019-04-21T10:53:31.705Z,45.00
2019-04-21T10:54:49.133Z,45.00
2019-04-21T10:55:44.604Z,45.00
2019-04-21T10:56:37.997Z,45.00
2019-04-21T10:57:32.671Z,45.00
2019-04-21T10:58:32.248Z,45.00
2019-04-21T10:59:33.127Z,45.00
2019-04-21T11:00:32.383Z,45.00
2019-04-21T11:01:32.021Z,45.00
2019-04-21T11:02:32.908Z,50.63
2019-04-21T11:03:33.191Z,50.63
2019-04-21T11:04:36.439Z,50.63
2019-04-21T11:05:32.623Z,50.63
2019-04-21T11:06:32.619Z,50.63
2019-04-21T11:07:38.990Z,50.63
2019-04-21T11:08:37.858Z,50.63
2019-04-21T11:09:33.854Z,50.63
2019-04-21T11:10:32.373Z,50.63
2019-04-21T11:11:32.413Z,50.63
2019-04-21T11:12:33.452Z,50.63
2019-04-21T11:13:32.661Z,50.63
2019-04-21T11:14:33.451Z,50.63
2019-04-21T11:15:32.784Z,50.63
2019-04-21T11:16:33.219Z,50.63
2019-04-21T11:17:32.654Z,50.63
2019-04-21T11:18:33.966Z,50.63
2019-04-21T11:19:32.853Z,50.63
2019-04-21T11:20:33.058Z,50.63
2019-04-21T11:21:32.810Z,50.63
2019-04-21T11:22:34.946Z,50.63
2019-04-21T11:23:33.190Z,50.63
2019-04-21T11:24:33.341Z,50.63
2019-04-21T11:25:33.725Z,50.63
2019-04-21T11:26:33.819Z,50.63
2019-04-21T11:27:33.210Z,50.63
2019-04-21T11:28:34.506Z,50.63
2019-04-21T11:29:33.175Z,50.63
2019-04-21T11:30:33.709Z,50.63
2019-04-21T11:31:33.454Z,50.63
2019-04-21T11:32:33.249Z,50.63
2019-04-21T11:33:33.424Z,50.63
2019-04-21T11:34:33.504Z,50.63
2019-04-21T11:35:33.366Z,50.63
2019-04-21T11:36:33.406Z,50.63
2019-04-21T11:37:34.631Z,50.63
2019-04-21T11:38:44.727Z,50.63
2019-04-21T11:39:42.247Z,50.63
2019-04-21T11:40:34.023Z,50.63
2019-04-21T11:41:34.001Z,50.63
2019-04-21T11:42:33.667Z,50.63
2019-04-21T11:43:34.973Z,50.63
2019-04-21T11:44:35.186Z,50.63
2019-04-21T11:45:34.692Z,50.63
2019-04-21T11:46:34.214Z,50.63
2019-04-21T11:47:34.265Z,50.63
2019-04-21T11:48:34.540Z,50.63
2019-04-21T11:49:34.831Z,50.63
2019-04-21T11:50:35.073Z,50.63
2019-04-21T11:51:35.163Z,50.63
2019-04-21T11:52:34.759Z,50.63
2019-04-21T11:53:34.866Z,50.63
2019-04-21T11:54:35.067Z,50.63
2019-04-21T11:55:39.184Z,50.63
2019-04-21T11:56:34.814Z,50.63
2019-04-21T11:57:38.303Z,50.63
2019-04-21T11:58:34.285Z,50.63
2019-04-21T11:59:35.478Z,50.63
2019-04-21T12:00:35.740Z,50.63
2019-04-21T12:01:34.406Z,50.63
2019-04-21T12:02:35.326Z,50.63
2019-04-21T12:03:35.746Z,50.63
2019-04-21T12:04:35.695Z,50.63
2019-04-21T12:05:35.231Z,50.63
2019-04-21T12:06:40.924Z,50.63
2019-04-21T12:07:35.369Z,50.63
2019-04-21T12:08:40.439Z,50.63
2019-04-21T12:09:35.439Z,50.63
2019-04-21T12:10:35.536Z,50.63
2019-04-21T12:11:35.673Z,50.63
2019-04-21T12:12:35.115Z,50.63
2019-04-21T12:13:36.112Z,50.63
2019-04-21T12:14:36.265Z,50.63
2019-04-21T12:15:34.970Z,50.63
2019-04-21T12:16:35.245Z,50.63
2019-04-21T12:17:36.122Z,50.63
2019-04-21T12:18:35.088Z,50.63
2019-04-21T12:19:35.137Z,50.63
2019-04-21T12:20:35.543Z,50.63
2019-04-21T12:21:50.584Z,50.63
2019-04-21T12:22:35.706Z,50.63
2019-04-21T12:23:36.418Z,50.63
2019-04-21T12:24:36.822Z,50.63
2019-04-21T12:25:36.766Z,50.63
2019-04-21T12:26:35.942Z,50.63
2019-04-21T12:27:36.060Z,50.63
2019-04-21T12:28:35.494Z,50.63
2019-04-21T12:29:35.633Z,50.63
2019-04-21T12:30:35.777Z,50.63
2019-04-21T12:31:35.897Z,50.63
2019-04-21T12:32:35.979Z,50.63
2019-04-21T12:33:36.230Z,50.63
2019-04-21T12:34:36.245Z,50.63
2019-04-21T12:35:35.776Z,50.63
2019-04-21T12:36:35.885Z,50.63
2019-04-21T12:37:37.084Z,50.63
2019-04-21T12:38:46.225Z,50.63
2019-04-21T12:39:36.872Z,50.63
2019-04-21T12:40:36.730Z,50.63
2019-04-21T12:41:36.277Z,33.75
2019-04-21T12:42:38.718Z,50.63
2019-04-21T12:43:36.969Z,50.63
2019-04-21T12:44:37.164Z,50.63
2019-04-21T12:45:36.175Z,50.63
2019-04-21T12:46:36.218Z,50.63
2019-04-21T12:47:37.658Z,50.63
2019-04-21T12:48:36.298Z,50.63
2019-04-21T12:49:36.338Z,50.63
2019-04-21T12:50:36.385Z,50.63
2019-04-21T12:51:37.695Z,50.63
2019-04-21T12:52:37.722Z,50.63
2019-04-21T12:53:36.500Z,50.63
2019-04-21T12:54:37.670Z,50.63
2019-04-21T12:55:40.517Z,50.63
2019-04-21T12:56:37.595Z,50.63
2019-04-21T12:57:37.231Z,50.63
2019-04-21T12:58:37.384Z,50.63
2019-04-21T12:59:37.827Z,50.63
2019-04-21T13:00:36.904Z,50.63
2019-04-21T13:01:37.053Z,50.63
2019-04-21T13:02:37.926Z,50.63
2019-04-21T13:03:37.613Z,50.63
2019-04-21T13:04:37.860Z,45.00
2019-04-21T13:05:37.891Z,45.00
2019-04-21T13:06:37.339Z,45.00
2019-04-21T13:07:37.393Z,45.00
2019-04-21T13:08:45.622Z,45.00
2019-04-21T13:09:37.563Z,45.00
2019-04-21T13:10:38.103Z,45.00
2019-04-21T13:11:37.341Z,45.00
2019-04-21T13:12:37.970Z,45.00
2019-04-21T13:13:37.729Z,45.00
2019-04-21T13:14:37.892Z,45.00
2019-04-21T13:15:37.676Z,45.00
2019-04-21T13:16:37.432Z,45.00
2019-04-21T13:17:37.483Z,45.00
2019-04-21T13:18:37.513Z,45.00
2019-04-21T13:19:38.957Z,45.00
2019-04-21T13:20:38.180Z,45.00
2019-04-21T13:21:38.144Z,45.00
2019-04-21T13:22:37.673Z,45.00
2019-04-21T13:23:39.057Z,45.00
2019-04-21T13:24:37.969Z,45.00
2019-04-21T13:25:38.125Z,45.00
2019-04-21T13:26:45.826Z,45.00
2019-04-21T13:27:38.771Z,45.00
2019-04-21T13:28:37.916Z,45.00
2019-04-21T13:29:38.553Z,45.00
2019-04-21T13:30:38.134Z,45.00
2019-04-21T13:31:38.424Z,45.00
2019-04-21T13:32:39.171Z,45.00
2019-04-21T13:33:38.119Z,45.00
2019-04-21T13:34:38.161Z,45.00
2019-04-21T13:35:39.122Z,45.00
2019-04-21T13:36:39.262Z,45.00
2019-04-21T13:37:39.524Z,45.00
2019-04-21T13:38:50.490Z,45.00
2019-04-21T13:40:01.541Z,45.00
2019-04-21T13:40:53.421Z,45.00
2019-04-21T13:41:53.321Z,45.00
2019-04-21T13:42:45.353Z,45.00
2019-04-21T13:43:39.172Z,45.00
2019-04-21T13:44:39.181Z,45.00
2019-04-21T13:45:39.495Z,45.00
2019-04-21T13:46:38.725Z,45.00
2019-04-21T13:47:38.865Z,45.00
2019-04-21T13:48:40.207Z,39.38
2019-04-21T13:49:39.203Z,45.00
2019-04-21T13:50:39.501Z,45.00
2019-04-21T13:51:38.852Z,45.00
2019-04-21T13:52:38.908Z,45.00
2019-04-21T13:53:39.924Z,39.38
2019-04-21T13:54:39.852Z,39.38
2019-04-21T13:55:40.646Z,39.38
2019-04-21T13:56:40.583Z,39.38
2019-04-21T13:57:40.769Z,39.38
2019-04-21T13:58:40.145Z,39.38
2019-04-21T13:59:40.338Z,39.38
2019-04-21T14:00:39.968Z,39.38
2019-04-21T14:01:39.608Z,39.38
2019-04-21T14:02:40.698Z,39.38
2019-04-21T14:03:39.709Z,39.38
2019-04-21T14:04:39.379Z,39.38
2019-04-21T14:05:40.287Z,39.38
2019-04-21T14:06:40.557Z,39.38
2019-04-21T14:07:39.519Z,39.38
2019-04-21T14:08:41.651Z,39.38
2019-04-21T14:09:47.925Z,39.38
2019-04-21T14:10:39.833Z,39.38
2019-04-21T14:11:40.853Z,39.38
2019-04-21T14:12:40.495Z,39.38
2019-04-21T14:13:40.566Z,39.38
2019-04-21T14:14:39.786Z,39.38
2019-04-21T14:15:40.022Z,39.38
2019-04-21T14:16:40.199Z,39.38